createdAt,value
2023-05-21T00:01:25.705Z,15.16
2023-05-21T00:03:52.619Z,15.15
2023-05-21T00:06:20.836Z,15.13
2023-05-21T00:08:47.628Z,15.14
2023-05-21T00:11:14.329Z,15.13
2023-05-21T00:13:40.987Z,15.13
2023-05-21T00:16:07.816Z,15.10
2023-05-21T00:18:34.420Z,15.08
2023-05-21T00:21:01.755Z,15.07
2023-05-21T00:23:28.568Z,15.06
2023-05-21T00:25:55.117Z,15.06
2023-05-21T00:28:21.720Z,15.05
2023-05-21T00:30:48.234Z,15.03
2023-05-21T00:33:14.923Z,15.01
2023-05-21T00:35:41.665Z,15.00
2023-05-21T00:38:08.559Z,14.98
2023-05-21T00:40:36.267Z,14.99
2023-05-21T00:43:03.343Z,14.97
2023-05-21T00:45:30.119Z,14.95
2023-05-21T00:47:56.775Z,14.93
2023-05-21T00:50:26.295Z,14.92
2023-05-21T00:52:53.295Z,14.91
2023-05-21T00:55:19.993Z,14.91
2023-05-21T00:57:46.657Z,14.90
2023-05-21T01:00:14.505Z,14.86
2023-05-21T01:02:42.084Z,14.88
2023-05-21T01:05:09.731Z,14.89
2023-05-21T01:07:38.942Z,14.88
2023-05-21T01:10:08.451Z,14.85
2023-05-21T01:12:36.158Z,14.85
2023-05-21T01:15:04.205Z,14.85
2023-05-21T01:17:31.780Z,14.83
2023-05-21T01:19:59.055Z,14.81
2023-05-21T01:22:28.513Z,14.80
2023-05-21T01:24:55.605Z,14.76
2023-05-21T01:27:22.747Z,14.72
2023-05-21T01:29:50.085Z,14.74
2023-05-21T01:32:52.047Z,14.72
2023-05-21T01:35:33.725Z,14.71
2023-05-21T01:38:24.696Z,14.67
2023-05-21T01:41:03.880Z,14.65
2023-05-21T01:43:36.979Z,14.64
2023-05-21T01:46:05.305Z,14.59
2023-05-21T01:48:34.670Z,14.60
2023-05-21T01:51:03.671Z,14.58
2023-05-21T01:53:30.537Z,14.59
2023-05-21T01:55:57.111Z,14.60
2023-05-21T01:58:24.252Z,14.56
2023-05-21T02:00:51.175Z,14.55
2023-05-21T02:03:20.699Z,14.53
2023-05-21T02:05:47.555Z,14.51
2023-05-21T02:08:15.597Z,14.50
2023-05-21T02:10:42.224Z,14.47
2023-05-21T02:13:08.792Z,14.44
2023-05-21T02:15:35.688Z,14.42
2023-05-21T02:18:03.478Z,14.41
2023-05-21T02:20:31.063Z,14.40
2023-05-21T02:22:57.599Z,14.38
2023-05-21T02:25:24.153Z,14.38
2023-05-21T02:27:53.479Z,14.34
2023-05-21T02:30:20.836Z,14.33
2023-05-21T02:32:48.909Z,14.32
2023-05-21T02:35:16.212Z,14.31
2023-05-21T02:37:44.224Z,14.29
2023-05-21T02:40:12.024Z,14.29
2023-05-21T02:42:41.267Z,14.29
2023-05-21T02:45:11.879Z,14.28
2023-05-21T02:47:41.367Z,14.25
2023-05-21T02:50:09.202Z,14.24
2023-05-21T02:52:43.108Z,14.20
2023-05-21T02:55:09.751Z,14.21
2023-05-21T02:57:36.273Z,14.18
2023-05-21T03:00:05.934Z,14.17
2023-05-21T03:02:33.362Z,14.16
2023-05-21T03:05:00.676Z,14.13
2023-05-21T03:07:27.255Z,14.12
2023-05-21T03:09:53.965Z,14.10
2023-05-21T03:12:20.634Z,14.09
2023-05-21T03:14:49.352Z,14.08
2023-05-21T03:17:16.998Z,14.08
2023-05-21T03:19:44.243Z,14.07
2023-05-21T03:22:14.154Z,14.07
2023-05-21T03:24:41.357Z,14.07
2023-05-21T03:27:08.858Z,14.05
2023-05-21T03:29:36.191Z,14.05
2023-05-21T03:32:03.422Z,14.03
2023-05-21T03:34:34.393Z,14.02
2023-05-21T03:37:01.289Z,14.02
2023-05-21T03:39:28.518Z,14.04
2023-05-21T03:41:56.360Z,14.02
2023-05-21T03:44:32.802Z,14.03
2023-05-21T03:47:17.192Z,14.03
2023-05-21T03:49:43.998Z,14.03
2023-05-21T03:52:10.842Z,14.03
2023-05-21T03:54:37.497Z,14.05
2023-05-21T03:57:07.414Z,14.03
2023-05-21T03:59:34.496Z,14.04
2023-05-21T04:02:01.280Z,14.05
2023-05-21T04:04:29.490Z,14.06
2023-05-21T04:06:56.141Z,14.07
2023-05-21T04:09:23.195Z,14.07
2023-05-21T04:11:51.964Z,14.06
2023-05-21T04:14:18.587Z,14.05
2023-05-21T04:16:45.158Z,14.05
2023-05-21T04:19:11.745Z,14.03
2023-05-21T04:21:38.345Z,14.02
2023-05-21T04:24:05.790Z,14.00
2023-05-21T04:26:48.564Z,14.02
2023-05-21T04:29:21.291Z,14.04
2023-05-21T04:31:49.837Z,14.05
2023-05-21T04:34:19.888Z,14.05
2023-05-21T04:36:46.559Z,14.06
2023-05-21T04:39:14.672Z,14.06
2023-05-21T04:41:41.378Z,14.04
2023-05-21T04:44:08.771Z,14.06
2023-05-21T04:46:35.894Z,14.06
2023-05-21T04:49:05.948Z,14.07
2023-05-21T04:51:32.552Z,14.07
2023-05-21T04:53:59.687Z,14.07
2023-05-21T04:56:29.574Z,14.09
2023-05-21T04:58:58.687Z,14.10
2023-05-21T05:01:27.143Z,14.14
2023-05-21T05:03:54.080Z,14.18
2023-05-21T05:06:21.419Z,14.20
2023-05-21T05:08:48.248Z,14.22
2023-05-21T05:11:15.879Z,14.23
2023-05-21T05:13:42.493Z,14.22
2023-05-21T05:16:09.468Z,14.25
2023-05-21T05:18:36.761Z,14.22
2023-05-21T05:21:03.697Z,14.25
2023-05-21T05:23:30.610Z,14.28
2023-05-21T05:25:57.227Z,14.32
2023-05-21T05:28:23.811Z,14.35
2023-05-21T05:30:50.465Z,14.37
2023-05-21T05:33:23.054Z,14.37
2023-05-21T05:35:49.641Z,14.40
2023-05-21T05:38:16.957Z,14.43
2023-05-21T05:40:43.610Z,14.43
2023-05-21T05:43:10.185Z,14.47
2023-05-21T05:45:36.981Z,14.54
2023-05-21T05:48:10.001Z,14.58
2023-05-21T05:50:36.662Z,14.59
2023-05-21T05:53:03.331Z,14.63
2023-05-21T05:55:29.844Z,14.67
2023-05-21T05:57:56.384Z,14.68
2023-05-21T06:00:23.022Z,14.65
2023-05-21T06:02:50.964Z,14.62
2023-05-21T06:05:17.792Z,14.67
2023-05-21T06:07:44.405Z,14.76
2023-05-21T06:10:11.037Z,14.84
2023-05-21T06:12:37.708Z,15.01
2023-05-21T06:15:06.100Z,15.20
2023-05-21T06:17:33.151Z,15.38
2023-05-21T06:20:00.328Z,15.49
2023-05-21T06:22:27.673Z,15.69
2023-05-21T06:24:55.089Z,15.92
2023-05-21T06:27:21.574Z,16.14
2023-05-21T06:29:49.143Z,16.27
2023-05-21T06:32:15.762Z,16.48
2023-05-21T06:34:42.372Z,16.62
2023-05-21T06:37:08.976Z,16.60
2023-05-21T06:39:35.523Z,16.72
2023-05-21T06:42:03.007Z,16.72
2023-05-21T06:44:44.333Z,16.81
2023-05-21T06:47:17.423Z,16.93
2023-05-21T06:49:44.057Z,17.05
2023-05-21T06:52:11.204Z,17.04
2023-05-21T06:54:38.266Z,17.01
2023-05-21T06:57:05.968Z,17.03
2023-05-21T06:59:32.546Z,17.09
2023-05-21T07:02:01.015Z,17.06
2023-05-21T07:04:28.930Z,17.05
2023-05-21T07:06:55.417Z,17.09
2023-05-21T07:09:23.129Z,17.10
2023-05-21T07:11:49.907Z,17.11
2023-05-21T07:14:17.027Z,17.17
2023-05-21T07:16:43.535Z,17.21
2023-05-21T07:19:10.431Z,17.35
2023-05-21T07:21:37.459Z,17.47
2023-05-21T07:24:06.343Z,17.61
2023-05-21T07:26:32.868Z,17.72
2023-05-21T07:28:59.428Z,17.66
2023-05-21T07:31:26.736Z,17.79
2023-05-21T07:33:53.322Z,17.98
2023-05-21T07:36:24.224Z,18.14
2023-05-21T07:38:51.136Z,18.23
2023-05-21T07:41:18.802Z,18.32
2023-05-21T07:43:46.495Z,18.29
2023-05-21T07:46:14.041Z,18.39
2023-05-21T07:48:42.048Z,18.47
2023-05-21T07:51:09.905Z,18.53
2023-05-21T07:53:36.538Z,18.67
2023-05-21T07:56:06.943Z,18.83
2023-05-21T07:58:35.245Z,18.99
2023-05-21T08:01:02.797Z,19.10
2023-05-21T08:03:30.879Z,19.04
2023-05-21T08:05:57.686Z,19.24
2023-05-21T08:08:24.245Z,19.31
2023-05-21T08:10:53.210Z,19.59
2023-05-21T08:13:21.737Z,19.73
2023-05-21T08:15:52.079Z,19.77
2023-05-21T08:18:20.588Z,19.72
2023-05-21T08:20:48.279Z,19.74
2023-05-21T08:23:16.544Z,19.87
2023-05-21T08:25:48.918Z,20.08
2023-05-21T08:28:15.745Z,20.14
2023-05-21T08:30:42.240Z,20.19
2023-05-21T08:33:08.920Z,20.14
2023-05-21T08:35:35.906Z,19.97
2023-05-21T08:38:18.481Z,19.89
2023-05-21T08:40:56.179Z,20.00
2023-05-21T08:43:27.217Z,20.17
2023-05-21T08:45:55.427Z,20.27
2023-05-21T08:48:25.532Z,20.37
2023-05-21T08:50:53.757Z,20.60
2023-05-21T08:53:28.972Z,20.73
2023-05-21T08:55:57.396Z,20.89
2023-05-21T08:58:33.545Z,21.11
2023-05-21T09:01:00.459Z,21.32
2023-05-21T09:03:29.436Z,21.45
2023-05-21T09:05:57.416Z,21.54
2023-05-21T09:08:35.017Z,21.68
2023-05-21T09:11:05.629Z,21.78
2023-05-21T09:13:40.178Z,22.00
2023-05-21T09:16:13.237Z,22.12
2023-05-21T09:18:39.886Z,22.06
2023-05-21T09:21:31.809Z,22.00
2023-05-21T09:24:03.921Z,22.03
2023-05-21T09:26:30.615Z,22.23
2023-05-21T09:29:01.795Z,22.48
2023-05-21T09:31:29.557Z,22.67
2023-05-21T09:33:56.238Z,22.88
2023-05-21T09:36:24.782Z,22.90
2023-05-21T09:38:54.173Z,23.11
2023-05-21T09:41:30.874Z,22.99
2023-05-21T09:44:02.302Z,22.93
2023-05-21T09:46:38.584Z,23.04
2023-05-21T09:49:06.189Z,23.13
2023-05-21T09:51:32.972Z,23.11
2023-05-21T09:53:59.440Z,23.27
2023-05-21T09:56:31.732Z,23.38
2023-05-21T09:59:06.700Z,23.54
2023-05-21T10:01:34.509Z,23.73
2023-05-21T10:04:06.505Z,23.68
2023-05-21T10:06:37.506Z,23.57
2023-05-21T10:09:09.967Z,23.52
2023-05-21T10:11:37.292Z,23.61
2023-05-21T10:14:09.086Z,23.65
2023-05-21T10:16:37.257Z,23.60
2023-05-21T10:19:05.256Z,23.56
2023-05-21T10:21:33.397Z,23.50
2023-05-21T10:24:02.727Z,23.34
2023-05-21T10:26:30.433Z,23.27
2023-05-21T10:29:00.198Z,23.59
2023-05-21T10:31:27.853Z,23.85
2023-05-21T10:33:55.405Z,23.91
2023-05-21T10:36:23.749Z,24.07
2023-05-21T10:38:50.326Z,24.13
2023-05-21T10:41:19.982Z,24.00
2023-05-21T10:44:06.714Z,23.77
2023-05-21T10:46:53.319Z,23.44
2023-05-21T10:49:33.975Z,23.32
2023-05-21T10:52:39.765Z,23.22
2023-05-21T10:55:24.821Z,23.09
2023-05-21T10:57:56.974Z,23.23
2023-05-21T11:00:26.775Z,23.13
2023-05-21T11:02:53.892Z,22.98
2023-05-21T11:05:42.779Z,23.43
2023-05-21T11:08:25.543Z,23.53
2023-05-21T11:10:58.200Z,23.50
2023-05-21T11:13:31.401Z,23.27
2023-05-21T11:15:57.910Z,23.07
2023-05-21T11:18:44.361Z,22.98
2023-05-21T11:21:13.829Z,23.05
2023-05-21T11:24:01.299Z,23.42
2023-05-21T11:26:29.834Z,23.71
2023-05-21T11:29:05.448Z,24.12
2023-05-21T11:31:38.077Z,24.22
2023-05-21T11:34:10.938Z,24.32
2023-05-21T11:36:38.186Z,24.54
2023-05-21T11:39:21.913Z,24.60
2023-05-21T11:41:59.796Z,24.88
2023-05-21T11:44:42.619Z,24.91
2023-05-21T11:47:11.083Z,25.01
2023-05-21T11:49:38.843Z,25.19
2023-05-21T11:52:07.108Z,25.24
2023-05-21T11:54:38.403Z,25.13
2023-05-21T11:57:08.557Z,25.22
2023-05-21T11:59:35.765Z,25.25
2023-05-21T12:02:03.720Z,25.29
2023-05-21T12:04:31.115Z,25.04
2023-05-21T12:07:00.415Z,24.93
2023-05-21T12:09:26.888Z,25.06
2023-05-21T12:11:53.549Z,25.15
2023-05-21T12:14:21.484Z,25.15
2023-05-21T12:16:48.059Z,25.11
2023-05-21T12:19:17.698Z,25.04
2023-05-21T12:21:44.257Z,25.01
2023-05-21T12:24:11.058Z,25.05
2023-05-21T12:26:37.641Z,25.13
2023-05-21T12:29:04.727Z,25.29
2023-05-21T12:31:32.765Z,25.40
2023-05-21T12:33:59.676Z,25.22
2023-05-21T12:36:29.419Z,24.91
2023-05-21T12:38:57.583Z,24.68
2023-05-21T12:41:24.116Z,24.77
2023-05-21T12:43:51.328Z,24.73
2023-05-21T12:46:18.950Z,24.81
2023-05-21T12:48:57.857Z,24.73
2023-05-21T12:51:24.465Z,24.87
2023-05-21T12:53:51.558Z,25.02
2023-05-21T12:56:18.085Z,24.81
2023-05-21T12:58:50.493Z,24.74
2023-05-21T13:01:17.063Z,24.58
2023-05-21T13:03:45.005Z,24.60
2023-05-21T13:06:11.484Z,24.62
2023-05-21T13:08:38.161Z,24.56
2023-05-21T13:11:04.817Z,24.66
2023-05-21T13:13:31.523Z,24.83
2023-05-21T13:16:00.556Z,24.85
2023-05-21T13:18:27.175Z,24.81
2023-05-21T13:20:53.820Z,24.86
2023-05-21T13:23:20.449Z,24.86
2023-05-21T13:25:46.892Z,24.76
2023-05-21T13:28:15.287Z,24.56
2023-05-21T13:30:41.828Z,24.57
2023-05-21T13:33:08.499Z,24.62
2023-05-21T13:35:35.266Z,24.68
2023-05-21T13:38:02.061Z,24.77
2023-05-21T13:40:28.953Z,24.63
2023-05-21T13:42:55.495Z,24.43
2023-05-21T13:45:24.249Z,24.51
2023-05-21T13:47:50.984Z,24.54
2023-05-21T13:50:17.709Z,24.54
2023-05-21T13:52:44.357Z,24.50
2023-05-21T13:55:11.066Z,24.56
2023-05-21T13:57:37.678Z,24.53
2023-05-21T14:00:04.815Z,24.46
2023-05-21T14:02:34.662Z,24.47
2023-05-21T14:05:01.402Z,24.40
2023-05-21T14:07:27.864Z,24.42
2023-05-21T14:09:54.527Z,24.44
2023-05-21T14:12:21.707Z,24.50
2023-05-21T14:14:49.836Z,24.32
2023-05-21T14:17:16.436Z,24.22
2023-05-21T14:19:42.943Z,24.18
2023-05-21T14:22:09.461Z,24.19
2023-05-21T14:24:35.902Z,24.26
2023-05-21T14:27:02.464Z,24.19
2023-05-21T14:29:28.941Z,24.17
2023-05-21T14:31:55.498Z,24.24
2023-05-21T14:34:22.038Z,24.25
2023-05-21T14:36:48.611Z,24.22
2023-05-21T14:39:15.396Z,24.21
2023-05-21T14:41:41.864Z,24.26
2023-05-21T14:44:08.445Z,24.20
2023-05-21T14:46:35.025Z,24.16
2023-05-21T14:49:01.704Z,24.10
2023-05-21T14:51:28.243Z,23.97
2023-05-21T14:53:56.974Z,23.76
2023-05-21T14:56:26.728Z,23.71
2023-05-21T14:58:53.591Z,23.60
2023-05-21T15:01:20.307Z,23.56
2023-05-21T15:03:46.873Z,23.52
2023-05-21T15:06:13.891Z,23.52
2023-05-21T15:08:40.534Z,23.48
2023-05-21T15:11:09.897Z,23.51
2023-05-21T15:13:36.669Z,23.45
2023-05-21T15:16:03.480Z,23.39
2023-05-21T15:18:30.109Z,23.34
2023-05-21T15:20:56.657Z,23.14
2023-05-21T15:23:23.213Z,23.14
2023-05-21T15:25:49.820Z,23.10
2023-05-21T15:28:16.948Z,23.13
2023-05-21T15:30:43.577Z,23.11
2023-05-21T15:33:11.065Z,22.94
2023-05-21T15:35:38.079Z,22.93
2023-05-21T15:38:04.954Z,22.97
2023-05-21T15:40:32.864Z,22.77
2023-05-21T15:42:59.536Z,22.69
2023-05-21T15:45:26.235Z,22.61
2023-05-21T15:47:52.960Z,22.57
2023-05-21T15:50:19.490Z,22.59
2023-05-21T15:52:45.944Z,22.55
2023-05-21T15:55:13.883Z,22.45
2023-05-21T15:57:40.425Z,22.38
2023-05-21T16:00:08.145Z,22.39
2023-05-21T16:02:35.566Z,22.33
2023-05-21T16:05:02.256Z,22.25
2023-05-21T16:07:28.801Z,22.26
2023-05-21T16:09:55.297Z,22.19
2023-05-21T16:12:21.827Z,22.15
2023-05-21T16:14:50.025Z,22.13
2023-05-21T16:17:17.067Z,22.13
2023-05-21T16:19:43.712Z,22.08
2023-05-21T16:22:10.949Z,21.93
2023-05-21T16:24:37.781Z,22.02
2023-05-21T16:27:04.911Z,22.10
2023-05-21T16:29:31.647Z,22.20
2023-05-21T16:31:58.120Z,22.19
2023-05-21T16:34:24.666Z,22.11
2023-05-21T16:36:51.780Z,22.10
2023-05-21T16:39:18.466Z,22.06
2023-05-21T16:41:45.049Z,22.05
2023-05-21T16:44:11.647Z,22.05
2023-05-21T16:46:38.307Z,22.06
2023-05-21T16:49:05.260Z,22.03
2023-05-21T16:51:34.220Z,22.06
2023-05-21T16:54:02.335Z,22.02
2023-05-21T16:56:28.770Z,21.95
2023-05-21T16:58:55.278Z,21.89
2023-05-21T17:01:21.812Z,21.93
2023-05-21T17:03:48.523Z,21.93
2023-05-21T17:06:15.249Z,21.92
2023-05-21T17:08:42.650Z,21.92
2023-05-21T17:11:09.384Z,21.87
2023-05-21T17:13:35.878Z,21.81
2023-05-21T17:16:02.401Z,21.72
2023-05-21T17:18:28.910Z,21.70
2023-05-21T17:20:56.385Z,21.58
2023-05-21T17:23:23.075Z,21.54
2023-05-21T17:25:49.617Z,21.47
2023-05-21T17:28:16.070Z,21.41
2023-05-21T17:30:42.998Z,21.29
2023-05-21T17:33:10.474Z,21.23
2023-05-21T17:35:37.447Z,21.20
2023-05-21T17:38:04.331Z,21.17
2023-05-21T17:40:30.928Z,21.16
2023-05-21T17:42:57.464Z,21.13
2023-05-21T17:45:23.919Z,21.05
2023-05-21T17:47:50.750Z,20.94
2023-05-21T17:50:17.361Z,20.89
2023-05-21T17:52:43.835Z,20.87
2023-05-21T17:55:10.526Z,20.78
2023-05-21T17:57:37.040Z,20.70
2023-05-21T18:00:05.144Z,20.60
2023-05-21T18:02:38.535Z,20.57
2023-05-21T18:05:05.435Z,20.53
2023-05-21T18:07:32.040Z,20.46
2023-05-21T18:09:58.536Z,20.37
2023-05-21T18:12:25.036Z,20.36
2023-05-21T18:14:51.470Z,20.30
2023-05-21T18:17:18.027Z,20.22
2023-05-21T18:19:44.498Z,20.16
2023-05-21T18:22:11.110Z,20.10
2023-05-21T18:24:38.221Z,20.05
2023-05-21T18:27:04.864Z,20.04
2023-05-21T18:29:31.624Z,20.03
2023-05-21T18:31:58.227Z,19.98
2023-05-21T18:34:24.780Z,19.91
2023-05-21T18:36:51.257Z,19.86
2023-05-21T18:39:17.817Z,19.83
2023-05-21T18:41:44.321Z,19.82
2023-05-21T18:44:10.981Z,19.78
2023-05-21T18:46:37.835Z,19.68
2023-05-21T18:49:04.979Z,19.64
2023-05-21T18:51:31.791Z,19.61
2023-05-21T18:53:58.671Z,19.55
2023-05-21T18:56:25.858Z,19.47
2023-05-21T18:58:52.452Z,19.42
2023-05-21T19:01:19.076Z,19.38
2023-05-21T19:03:45.663Z,19.29
2023-05-21T19:06:12.192Z,19.25
2023-05-21T19:08:40.414Z,19.19
2023-05-21T19:11:07.370Z,19.15
2023-05-21T19:13:34.183Z,19.07
2023-05-21T19:16:01.965Z,18.99
2023-05-21T19:18:31.582Z,18.90
2023-05-21T19:21:00.115Z,18.80
2023-05-21T19:23:26.726Z,18.78
2023-05-21T19:25:53.257Z,18.71
2023-05-21T19:28:20.082Z,18.67
2023-05-21T19:30:46.620Z,18.60
2023-05-21T19:33:13.562Z,18.52
2023-05-21T19:35:41.842Z,18.45
2023-05-21T19:38:10.780Z,18.41
2023-05-21T19:40:37.531Z,18.32
2023-05-21T19:43:04.453Z,18.23
2023-05-21T19:45:30.936Z,18.13
2023-05-21T19:47:59.008Z,18.08
2023-05-21T19:50:28.339Z,18.00
2023-05-21T19:52:57.004Z,17.95
2023-05-21T19:55:24.461Z,17.93
2023-05-21T19:57:51.021Z,17.82
2023-05-21T20:00:18.274Z,17.72
2023-05-21T20:02:46.221Z,17.66
2023-05-21T20:05:12.953Z,17.61
2023-05-21T20:07:39.647Z,17.57
2023-05-21T20:10:07.033Z,17.52
2023-05-21T20:12:33.576Z,17.46
2023-05-21T20:15:00.824Z,17.40
2023-05-21T20:17:28.565Z,17.35
2023-05-21T20:19:57.249Z,17.30
2023-05-21T20:22:23.966Z,17.21
2023-05-21T20:24:50.638Z,17.17
2023-05-21T20:27:19.442Z,17.14
2023-05-21T20:29:46.204Z,17.08
2023-05-21T20:32:13.183Z,17.03
2023-05-21T20:34:50.720Z,16.99
2023-05-21T20:37:28.283Z,16.93
2023-05-21T20:39:57.661Z,16.89
2023-05-21T20:42:28.359Z,16.84
2023-05-21T20:44:55.457Z,16.80
2023-05-21T20:47:23.435Z,16.75
2023-05-21T20:49:53.696Z,16.71
2023-05-21T20:52:20.755Z,16.68
2023-05-21T20:54:48.779Z,16.62
2023-05-21T20:57:15.457Z,16.59
2023-05-21T20:59:42.249Z,16.55
2023-05-21T21:02:13.721Z,16.52
2023-05-21T21:04:42.096Z,16.49
2023-05-21T21:07:09.990Z,16.46
2023-05-21T21:09:38.604Z,16.41
2023-05-21T21:12:21.257Z,16.34
2023-05-21T21:14:51.554Z,16.32
2023-05-21T21:17:18.034Z,16.29
2023-05-21T21:19:44.528Z,16.28
2023-05-21T21:22:11.165Z,16.27
2023-05-21T21:24:37.711Z,16.25
2023-05-21T21:27:04.528Z,16.20
2023-05-21T21:29:30.999Z,16.16
2023-05-21T21:31:57.571Z,16.14
2023-05-21T21:34:25.170Z,16.10
2023-05-21T21:36:51.727Z,16.07
2023-05-21T21:39:18.200Z,16.05
2023-05-21T21:41:44.801Z,16.05
2023-05-21T21:44:11.402Z,16.02
2023-05-21T21:46:37.906Z,16.00
2023-05-21T21:49:04.439Z,15.98
2023-05-21T21:51:30.976Z,15.95
2023-05-21T21:53:57.447Z,15.90
2023-05-21T21:56:23.943Z,15.89
2023-05-21T21:58:50.573Z,15.87
2023-05-21T22:01:17.631Z,15.84
2023-05-21T22:03:44.207Z,15.82
2023-05-21T22:06:10.905Z,15.80
2023-05-21T22:08:37.438Z,15.75
2023-05-21T22:11:03.983Z,15.73
2023-05-21T22:13:30.454Z,15.70
2023-05-21T22:15:57.369Z,15.66
2023-05-21T22:18:38.899Z,15.63
2023-05-21T22:21:09.582Z,15.60
2023-05-21T22:23:37.161Z,15.60
2023-05-21T22:26:03.792Z,15.57
2023-05-21T22:28:30.440Z,15.56
2023-05-21T22:30:57.270Z,15.52
2023-05-21T22:33:24.382Z,15.49
2023-05-21T22:35:50.960Z,15.48
2023-05-21T22:38:17.911Z,15.44
2023-05-21T22:40:44.476Z,15.41
2023-05-21T22:43:11.119Z,15.38
2023-05-21T22:45:38.434Z,15.36
2023-05-21T22:48:07.356Z,15.34
2023-05-21T22:50:34.024Z,15.31
2023-05-21T22:53:00.706Z,15.31
2023-05-21T22:55:27.275Z,15.31
2023-05-21T22:57:53.790Z,15.31
2023-05-21T23:00:20.484Z,15.31
2023-05-21T23:02:47.906Z,15.32
2023-05-21T23:05:15.010Z,15.30
2023-05-21T23:07:41.944Z,15.30
2023-05-21T23:10:09.226Z,15.29
2023-05-21T23:12:36.897Z,15.30
2023-05-21T23:15:05.519Z,15.28
2023-05-21T23:17:32.086Z,15.29
2023-05-21T23:19:59.300Z,15.31
2023-05-21T23:22:26.236Z,15.33
2023-05-21T23:24:54.092Z,15.31
2023-05-21T23:27:20.784Z,15.34
2023-05-21T23:29:47.245Z,15.38
2023-05-21T23:32:13.876Z,15.39
2023-05-21T23:34:40.325Z,15.41
2023-05-21T23:37:06.878Z,15.40
2023-05-21T23:39:33.380Z,15.39
2023-05-21T23:42:00.027Z,15.32
2023-05-21T23:44:26.496Z,15.27
2023-05-21T23:46:53.029Z,15.25
2023-05-21T23:49:19.508Z,15.22
2023-05-21T23:51:46.734Z,15.20
2023-05-21T23:54:13.264Z,15.17
2023-05-21T23:56:39.830Z,15.16
2023-05-21T23:59:06.498Z,15.14
